Time;durP1;ratioP1;P1;durP2;ratioP2;P2;SDS_P1;SDS_P2;PMS_P1;PMS_P2;Temp;Humidity;BMP_temperature;BMP_pressure;BME280_temperature;BME280_humidity;BME280_pressure;Samples;Min_cycle;Max_cycle;Signal;HPM_P1;HPM_P2
2023/02/23 00:01:34;;;;;;;;;;;;;;;;;;4248492;27;20267;-38
2023/02/23 00:03:35;;;;;;;;;;;;;;;;;;4248750;27;19915;-37
2023/02/23 00:05:36;;;;;;;;;;;;;;;;;;4230091;28;20147;-40
2023/02/23 00:07:38;;;;;;;;;;;;;;;;;;4250099;27;19941;-38
2023/02/23 00:09:39;;;;;;;;;;;;;;;;;;4258360;27;20007;-38
2023/02/23 00:11:40;;;;;;;;;;;;;;;;;;4248113;27;19919;-39
2023/02/23 00:13:41;;;;;;;;;;;;;;;;;;4230174;28;19915;-38
2023/02/23 00:15:42;;;;;;;;;;;;;;;;;;4247975;27;19916;-38
2023/02/23 00:17:46;;;;;;;;;;;;;;;;;;4248158;27;19920;-38
2023/02/23 00:19:48;;;;;;;;;;;;;;;;;;4247872;27;19915;-38
2023/02/23 00:21:49;;;;;;;;;;;;;;;;;;4229508;27;19920;-38
2023/02/23 00:23:51;;;;;;;;;;;;;;;;;;4237794;27;19922;-38
2023/02/23 00:25:52;;;;;;;;;;;;;;;;;;4252503;27;19919;-37
2023/02/23 00:27:53;;;;;;;;;;;;;;;;;;4233954;27;19915;-37
2023/02/23 00:29:55;;;;;;;;;;;;;;;;;;4235507;27;19997;-38
2023/02/23 00:31:56;;;;;;;;;;;;;;;;;;4247764;27;19916;-38
2023/02/23 00:33:56;;;;;;;;;;;;;;;;;;4246307;27;20006;-39
2023/02/23 00:35:57;;;;;;;;;;;;;;;;;;4258975;27;19966;-39
2023/02/23 00:37:59;;;;;;;;;;;;;;;;;;4247392;27;19915;-38
2023/02/23 00:40:00;;;;;;;;;;;;;;;;;;4242191;27;19919;-38
2023/02/23 00:42:02;;;;;;;;;;;;;;;;;;4237657;27;19916;-37
2023/02/23 00:44:03;;;;;;;;;;;;;;;;;;4253499;27;20014;-37
2023/02/23 00:46:04;;;;;;;;;;;;;;;;;;4244011;27;19927;-39
2023/02/23 00:48:09;;;;;;;;;;;;;;;;;;4241248;27;19915;-38
2023/02/23 00:50:11;;;;;;;;;;;;;;;;;;4243118;27;19919;-37
2023/02/23 00:52:13;;;;;;;;;;;;;;;;;;4233514;27;20214;-38
2023/02/23 00:54:14;;;;;;;;;;;;;;;;;;4256994;27;19927;-38
2023/02/23 00:56:15;;;;;;;;;;;;;;;;;;4258754;27;19976;-37
2023/02/23 00:58:16;;;;;;;;;;;;;;;;;;4264250;27;19989;-38
2023/02/23 01:00:19;;;;;;;;;;;;;;;;;;4229620;28;19965;-38
2023/02/23 01:02:20;;;;;;;;;;;;;;;;;;4246876;27;19960;-38
2023/02/23 01:04:23;;;;;;;;;;;;;;;;;;4257363;27;19967;-38
2023/02/23 01:06:24;;;;;;;;;;;;;;;;;;4264178;27;19981;-38
2023/02/23 01:08:26;;;;;;;;;;;;;;;;;;4247562;27;19922;-37
2023/02/23 01:10:27;;;;;;;;;;;;;;;;;;4253816;27;19924;-37
2023/02/23 01:12:28;;;;;;;;;;;;;;;;;;4254814;27;19915;-38
2023/02/23 01:14:30;;;;;;;;;;;;;;;;;;4260188;27;20338;-37
2023/02/23 01:16:31;;;;;;;;;;;;;;;;;;4236961;27;19915;-38
2023/02/23 01:18:33;;;;;;;;;;;;;;;;;;4247701;27;19915;-39
2023/02/23 01:20:36;;;;;;;;;;;;;;;;;;4256104;27;19919;-40
2023/02/23 01:22:37;;;;;;;;;;;;;;;;;;4233986;27;19980;-37
2023/02/23 01:24:39;;;;;;;;;;;;;;;;;;4228720;28;19969;-37
2023/02/23 01:26:40;;;;;;;;;;;;;;;;;;4233498;28;19919;-37
2023/02/23 01:28:41;;;;;;;;;;;;;;;;;;4264712;27;19923;-37
2023/02/23 01:30:42;;;;;;;;;;;;;;;;;;4264626;27;19939;-38
2023/02/23 01:32:43;;;;;;;;;;;;;;;;;;4249776;27;19984;-41
2023/02/23 01:34:44;;;;;;;;;;;;;;;;;;4247681;27;19927;-37
2023/02/23 01:36:47;;;;;;;;;;;;;;;;;;4239106;28;20462;-39
2023/02/23 01:38:48;;;;;;;;;;;;;;;;;;4257384;27;19915;-37
2023/02/23 01:40:49;;;;;;;;;;;;;;;;;;4251258;27;19922;-38
2023/02/23 01:42:51;;;;;;;;;;;;;;;;;;4231030;28;19915;-38
2023/02/23 01:44:53;;;;;;;;;;;;;;;;;;4252542;27;19967;-39
2023/02/23 01:46:54;;;;;;;;;;;;;;;;;;4256566;27;20370;-38
2023/02/23 01:48:55;;;;;;;;;;;;;;;;;;4247728;27;19923;-42
2023/02/23 01:50:56;;;;;;;;;;;;;;;;;;4262487;27;20426;-38
2023/02/23 01:52:58;;;;;;;;;;;;;;;;;;4258787;27;19972;-37
2023/02/23 01:54:59;;;;;;;;;;;;;;;;;;4247188;27;19960;-38
2023/02/23 01:57:00;;;;;;;;;;;;;;;;;;4246979;27;20386;-38
2023/02/23 01:59:01;;;;;;;;;;;;;;;;;;4243135;28;19967;-38
2023/02/23 02:01:02;;;;;;;;;;;;;;;;;;4242040;28;19916;-41
2023/02/23 02:03:07;;;;;;;;;;;;;;;;;;4228786;28;19946;-38
2023/02/23 02:05:12;;;;;;;;;;;;;;;;;;4239271;28;19988;-38
2023/02/23 02:07:13;;;;;;;;;;;;;;;;;;4238565;28;19965;-37
2023/02/23 02:09:17;;;;;;;;;;;;;;;;;;4246870;27;19964;-38
2023/02/23 02:11:29;;;;;;;;;;;;;;;;;;4251450;27;20374;-37
2023/02/23 02:13:30;;;;;;;;;;;;;;;;;;4255167;27;19919;-37
2023/02/23 02:15:32;;;;;;;;;;;;;;;;;;4246641;27;20286;-38
2023/02/23 02:17:34;;;;;;;;;;;;;;;;;;4228540;28;19924;-37
2023/02/23 02:19:37;;;;;;;;;;;;;;;;;;4246925;27;20434;-39
2023/02/23 02:21:39;;;;;;;;;;;;;;;;;;4245284;27;20275;-37
2023/02/23 02:23:40;;;;;;;;;;;;;;;;;;4247331;27;20376;-37
2023/02/23 02:25:42;;;;;;;;;;;;;;;;;;4250192;27;19927;-39
2023/02/23 02:27:44;;;;;;;;;;;;;;;;;;4249938;27;20354;-38
2023/02/23 02:29:45;;;;;;;;;;;;;;;;;;4249868;27;19975;-38
2023/02/23 02:31:46;;;;;;;;;;;;;;;;;;4249976;27;19915;-37
2023/02/23 02:33:48;;;;;;;;;;;;;;;;;;4233836;27;19916;-38
2023/02/23 02:35:50;;;;;;;;;;;;;;;;;;4252521;27;19915;-39
2023/02/23 02:37:55;;;;;;;;;;;;;;;;;;4249952;27;19919;-38
2023/02/23 02:40:13;;;;;;;;;;;;;;;;;;4249875;27;19941;-38
2023/02/23 02:42:14;;;;;;;;;;;;;;;;;;4236780;27;19920;-38
2023/02/23 02:44:15;;;;;;;;;;;;;;;;;;4257976;27;19914;-38
2023/02/23 02:46:16;;;;;;;;;;;;;;;;;;4234421;27;19923;-38
2023/02/23 02:48:17;;;;;;;;;;;;;;;;;;4258338;27;20397;-38
2023/02/23 02:50:18;;;;;;;;;;;;;;;;;;4236233;27;19961;-38
2023/02/23 02:52:20;;;;;;;;;;;;;;;;;;4259730;27;19922;-37
2023/02/23 02:54:21;;;;;;;;;;;;;;;;;;4251173;27;20328;-38
2023/02/23 02:56:22;;;;;;;;;;;;;;;;;;4263215;27;20373;-38
2023/02/23 02:58:24;;;;;;;;;;;;;;;;;;4249519;27;20495;-37
2023/02/23 04:19:09;;;;;;;;;;;;;;;;;;4229288;28;19985;-37
2023/02/23 04:21:10;;;;;;;;;;;;;;;;;;4248557;27;19915;-37
2023/02/23 04:23:12;;;;;;;;;;;;;;;;;;4257968;27;19926;-38
2023/02/23 04:25:12;;;;;;;;;;;;;;;;;;4265019;27;19919;-37
2023/02/23 04:27:14;;;;;;;;;;;;;;;;;;4263037;27;19918;-37
2023/02/23 04:29:16;;;;;;;;;;;;;;;;;;4253158;27;19918;-37
2023/02/23 04:31:17;;;;;;;;;;;;;;;;;;4265474;27;19919;-35
2023/02/23 04:33:18;;;;;;;;;;;;;;;;;;4253631;27;19916;-36
2023/02/23 04:35:19;;;;;;;;;;;;;;;;;;4261279;27;19915;-38
2023/02/23 04:37:20;;;;;;;;;;;;;;;;;;4252424;27;19915;-37
2023/02/23 04:39:22;;;;;;;;;;;;;;;;;;4265227;27;19915;-38
2023/02/23 04:41:23;;;;;;;;;;;;;;;;;;4265237;27;20230;-36
2023/02/23 04:43:25;;;;;;;;;;;;;;;;;;4265321;27;19944;-37
2023/02/23 04:45:26;;;;;;;;;;;;;;;;;;4264460;27;20346;-36
2023/02/23 04:47:27;;;;;;;;;;;;;;;;;;4258089;27;19946;-37
2023/02/23 04:49:28;;;;;;;;;;;;;;;;;;4256921;27;19919;-37
2023/02/23 04:51:31;;;;;;;;;;;;;;;;;;4252360;27;19920;-37
2023/02/23 04:53:32;;;;;;;;;;;;;;;;;;4263483;27;19922;-36
2023/02/23 04:55:32;;;;;;;;;;;;;;;;;;4264582;27;19927;-37
2023/02/23 04:57:34;;;;;;;;;;;;;;;;;;4265086;27;19959;-36
2023/02/23 04:59:35;;;;;;;;;;;;;;;;;;4264680;27;20430;-36
2023/02/23 05:01:36;;;;;;;;;;;;;;;;;;4263306;27;19923;-40
2023/02/23 05:03:38;;;;;;;;;;;;;;;;;;4260882;27;19972;-38
2023/02/23 05:05:39;;;;;;;;;;;;;;;;;;4247097;27;19915;-37
2023/02/23 05:07:40;;;;;;;;;;;;;;;;;;4258046;27;20439;-37
2023/02/23 05:09:41;;;;;;;;;;;;;;;;;;4264387;27;19963;-38
2023/02/23 05:11:42;;;;;;;;;;;;;;;;;;4261479;27;19958;-37
2023/02/23 05:13:43;;;;;;;;;;;;;;;;;;4251594;27;19922;-38
2023/02/23 05:15:44;;;;;;;;;;;;;;;;;;4238776;27;19926;-37
2023/02/23 05:17:46;;;;;;;;;;;;;;;;;;4247378;27;20366;-37
2023/02/23 05:19:47;;;;;;;;;;;;;;;;;;4260959;27;19919;-37
2023/02/23 05:21:49;;;;;;;;;;;;;;;;;;4252636;27;20013;-38
2023/02/23 05:23:50;;;;;;;;;;;;;;;;;;4255990;27;19915;-37
2023/02/23 05:25:51;;;;;;;;;;;;;;;;;;4258994;27;19919;-38
2023/02/23 05:27:53;;;;;;;;;;;;;;;;;;4264063;27;19937;-37
2023/02/23 05:29:54;;;;;;;;;;;;;;;;;;4250583;27;19920;-37
2023/02/23 05:31:55;;;;;;;;;;;;;;;;;;4254518;27;20400;-37
2023/02/23 05:33:56;;;;;;;;;;;;;;;;;;4263848;27;19962;-38
2023/02/23 05:35:57;;;;;;;;;;;;;;;;;;4264611;27;20001;-38
2023/02/23 05:37:58;;;;;;;;;;;;;;;;;;4232024;28;19945;-37
2023/02/23 05:39:59;;;;;;;;;;;;;;;;;;4252982;27;20433;-37
2023/02/23 05:42:00;;;;;;;;;;;;;;;;;;4255160;27;19922;-37
2023/02/23 05:44:02;;;;;;;;;;;;;;;;;;4247277;27;19968;-37
2023/02/23 05:46:03;;;;;;;;;;;;;;;;;;4225215;28;19961;-37
2023/02/23 05:48:05;;;;;;;;;;;;;;;;;;4252419;27;19919;-37
2023/02/23 05:50:06;;;;;;;;;;;;;;;;;;4237148;28;19920;-38
2023/02/23 05:52:07;;;;;;;;;;;;;;;;;;4247134;27;19919;-39
2023/02/23 05:54:08;;;;;;;;;;;;;;;;;;4261589;27;19922;-37
2023/02/23 05:56:09;;;;;;;;;;;;;;;;;;4264582;27;19962;-38
2023/02/23 05:58:10;;;;;;;;;;;;;;;;;;4265980;27;19919;-38
2023/02/23 06:00:14;;;;;;;;;;;;;;;;;;4256089;27;19915;-38
2023/02/23 06:02:15;;;;;;;;;;;;;;;;;;4264973;27;19972;-37
2023/02/23 06:04:16;;;;;;;;;;;;;;;;;;4243332;27;19953;-39
2023/02/23 06:06:17;;;;;;;;;;;;;;;;;;4255226;27;19915;-38
2023/02/23 06:08:19;;;;;;;;;;;;;;;;;;4265632;27;19923;-39
2023/02/23 06:10:20;;;;;;;;;;;;;;;;;;4265367;27;19964;-37
2023/02/23 06:12:22;;;;;;;;;;;;;;;;;;4250702;27;19923;-37
2023/02/23 06:14:23;;;;;;;;;;;;;;;;;;4246512;27;19916;-38
2023/02/23 06:16:24;;;;;;;;;;;;;;;;;;4248527;27;19919;-38
2023/02/23 06:18:26;;;;;;;;;;;;;;;;;;4260315;27;19975;-38
2023/02/23 06:20:27;;;;;;;;;;;;;;;;;;4250464;27;19971;-40
2023/02/23 06:22:28;;;;;;;;;;;;;;;;;;4260993;27;19963;-38
2023/02/23 06:24:29;;;;;;;;;;;;;;;;;;4236997;27;20352;-38
2023/02/23 06:26:29;;;;;;;;;;;;;;;;;;4247989;27;20331;-38
2023/02/23 06:28:31;;;;;;;;;;;;;;;;;;4235687;27;20298;-41
2023/02/23 06:30:32;;;;;;;;;;;;;;;;;;4231009;27;19920;-39
2023/02/23 06:32:33;;;;;;;;;;;;;;;;;;4237399;27;20430;-38
2023/02/23 06:34:37;;;;;;;;;;;;;;;;;;4236221;27;19926;-40
2023/02/23 06:36:38;;;;;;;;;;;;;;;;;;4225432;28;19932;-38
2023/02/23 06:38:39;;;;;;;;;;;;;;;;;;4245665;27;19977;-37
2023/02/23 06:40:42;;;;;;;;;;;;;;;;;;4246721;27;19926;-37
2023/02/23 06:42:43;;;;;;;;;;;;;;;;;;4263145;27;19915;-37
2023/02/23 06:44:44;;;;;;;;;;;;;;;;;;4236251;27;19919;-39
2023/02/23 06:46:46;;;;;;;;;;;;;;;;;;4238259;27;19948;-37
2023/02/23 06:48:47;;;;;;;;;;;;;;;;;;4231188;27;19973;-38
2023/02/23 06:50:48;;;;;;;;;;;;;;;;;;4234034;27;19915;-39
2023/02/23 06:52:50;;;;;;;;;;;;;;;;;;4241655;27;19923;-37
2023/02/23 06:54:51;;;;;;;;;;;;;;;;;;4235872;27;19919;-38
2023/02/23 06:56:55;;;;;;;;;;;;;;;;;;4237589;27;20429;-36
2023/02/23 06:58:56;;;;;;;;;;;;;;;;;;4230625;27;20581;-37
2023/02/23 07:00:58;;;;;;;;;;;;;;;;;;4244462;27;19923;-40
2023/02/23 07:02:59;;;;;;;;;;;;;;;;;;4225923;27;20374;-37
2023/02/23 07:05:00;;;;;;;;;;;;;;;;;;4234681;27;19977;-38
2023/02/23 07:07:02;;;;;;;;;;;;;;;;;;4223754;27;19919;-37
2023/02/23 07:09:04;;;;;;;;;;;;;;;;;;4229971;27;19927;-38
2023/02/23 07:11:05;;;;;;;;;;;;;;;;;;4232836;27;19983;-39
2023/02/23 07:13:07;;;;;;;;;;;;;;;;;;4237442;27;20386;-37
2023/02/23 07:15:08;;;;;;;;;;;;;;;;;;4234675;27;20344;-40
2023/02/23 07:17:09;;;;;;;;;;;;;;;;;;4227068;27;19923;-38
2023/02/23 07:19:11;;;;;;;;;;;;;;;;;;4228817;27;19920;-37
2023/02/23 07:21:12;;;;;;;;;;;;;;;;;;4229040;27;19915;-37
2023/02/23 07:23:13;;;;;;;;;;;;;;;;;;4232357;27;19930;-39
2023/02/23 07:25:14;;;;;;;;;;;;;;;;;;4241997;27;19971;-38
2023/02/23 07:27:15;;;;;;;;;;;;;;;;;;4248758;27;19931;-39
2023/02/23 07:29:17;;;;;;;;;;;;;;;;;;4247260;27;19919;-41
2023/02/23 07:31:18;;;;;;;;;;;;;;;;;;4246758;27;19915;-38
2023/02/23 07:33:19;;;;;;;;;;;;;;;;;;4241288;27;19926;-39
2023/02/23 07:35:20;;;;;;;;;;;;;;;;;;4242812;27;19982;-40
2023/02/23 07:37:21;;;;;;;;;;;;;;;;;;4247809;27;22511;-38
2023/02/23 07:39:24;;;;;;;;;;;;;;;;;;4230892;27;19916;-37
2023/02/23 07:41:25;;;;;;;;;;;;;;;;;;4239880;27;20305;-40
2023/02/23 07:43:26;;;;;;;;;;;;;;;;;;4237428;27;20374;-38
2023/02/23 07:45:27;;;;;;;;;;;;;;;;;;4235820;27;20030;-41
2023/02/23 07:47:31;;;;;;;;;;;;;;;;;;4236916;27;19991;-37
2023/02/23 07:49:32;;;;;;;;;;;;;;;;;;4237191;27;19927;-40
2023/02/23 07:51:33;;;;;;;;;;;;;;;;;;4236672;27;19962;-38
2023/02/23 07:53:34;;;;;;;;;;;;;;;;;;4237716;27;20481;-38
2023/02/23 07:55:37;;;;;;;;;;;;;;;;;;4242191;27;19923;-38
2023/02/23 07:57:38;;;;;;;;;;;;;;;;;;4239704;27;19934;-38
2023/02/23 07:59:39;;;;;;;;;;;;;;;;;;4221807;27;19942;-38
2023/02/23 08:01:40;;;;;;;;;;;;;;;;;;4238057;27;20005;-41
2023/02/23 08:03:48;;;;;;;;;;;;;;;;;;4240347;27;19930;-40
2023/02/23 08:05:49;;;;;;;;;;;;;;;;;;4232611;27;19923;-37
2023/02/23 08:07:50;;;;;;;;;;;;;;;;;;4236178;27;19923;-41
2023/02/23 08:09:52;;;;;;;;;;;;;;;;;;4237860;27;19949;-42
2023/02/23 08:11:53;;;;;;;;;;;;;;;;;;4224668;27;19924;-38
2023/02/23 08:13:58;;;;;;;;;;;;;;;;;;4233160;27;19923;-41
2023/02/23 08:15:59;;;;;;;;;;;;;;;;;;4236842;27;20475;-40
2023/02/23 08:18:00;;;;;;;;;;;;;;;;;;4232192;27;19923;-37
2023/02/23 08:20:02;;;;;;;;;;;;;;;;;;4240853;27;20412;-38
2023/02/23 08:22:04;;;;;;;;;;;;;;;;;;4227748;27;19979;-42
2023/02/23 08:24:05;;;;;;;;;;;;;;;;;;4229682;27;19931;-39
2023/02/23 08:26:06;;;;;;;;;;;;;;;;;;4229664;27;20317;-41
2023/02/23 08:28:07;;;;;;;;;;;;;;;;;;4228747;27;19927;-41
2023/02/23 08:30:08;;;;;;;;;;;;;;;;;;4225061;27;19920;-40
2023/02/23 08:32:13;;;;;;;;;;;;;;;;;;4230796;27;19976;-43
2023/02/23 08:34:13;;;;;;;;;;;;;;;;;;4230626;27;19930;-39
2023/02/23 08:36:15;;;;;;;;;;;;;;;;;;4229578;27;20640;-38
2023/02/23 08:38:17;;;;;;;;;;;;;;;;;;4230443;27;19930;-40
2023/02/23 08:40:19;;;;;;;;;;;;;;;;;;4228356;27;19923;-39
2023/02/23 08:42:20;;;;;;;;;;;;;;;;;;4236426;27;19915;-39
2023/02/23 08:44:21;;;;;;;;;;;;;;;;;;4224684;27;19924;-38
2023/02/23 08:46:22;;;;;;;;;;;;;;;;;;4236367;27;20263;-39
2023/02/23 08:48:24;;;;;;;;;;;;;;;;;;4234656;27;19927;-43
2023/02/23 08:50:25;;;;;;;;;;;;;;;;;;4233110;27;19988;-42
2023/02/23 08:52:27;;;;;;;;;;;;;;;;;;4224118;27;19923;-41
2023/02/23 08:54:29;;;;;;;;;;;;;;;;;;4238618;27;19919;-40
2023/02/23 08:56:32;;;;;;;;;;;;;;;;;;4238998;27;20000;-38
2023/02/23 08:58:33;;;;;;;;;;;;;;;;;;4239484;27;19919;-40
2023/02/23 09:00:35;;;;;;;;;;;;;;;;;;4237813;27;19926;-38
2023/02/23 09:02:35;;;;;;;;;;;;;;;;;;4225057;27;20034;-39
2023/02/23 09:04:36;;;;;;;;;;;;;;;;;;4235561;27;20469;-43
2023/02/23 09:06:37;;;;;;;;;;;;;;;;;;4239473;27;19958;-42
2023/02/23 09:08:38;;;;;;;;;;;;;;;;;;4242918;27;19967;-40
2023/02/23 09:10:42;;;;;;;;;;;;;;;;;;4240197;27;19927;-39
2023/02/23 09:12:43;;;;;;;;;;;;;;;;;;4240496;27;20286;-39
2023/02/23 09:14:44;;;;;;;;;;;;;;;;;;4237312;27;19967;-44
2023/02/23 09:16:46;;;;;;;;;;;;;;;;;;4236666;27;19923;-43
2023/02/23 09:18:47;;;;;;;;;;;;;;;;;;4226862;27;20344;-45
2023/02/23 09:20:48;;;;;;;;;;;;;;;;;;4240872;27;19926;-40
2023/02/23 09:22:49;;;;;;;;;;;;;;;;;;4243322;27;19923;-41
2023/02/23 09:24:50;;;;;;;;;;;;;;;;;;4217114;27;20019;-39
2023/02/23 09:26:52;;;;;;;;;;;;;;;;;;4210744;28;20022;-39
2023/02/23 09:28:53;;;;;;;;;;;;;;;;;;4202529;28;20023;-40
2023/02/23 09:30:54;;;;;;;;;;;;;;;;;;4202613;28;19920;-40
2023/02/23 09:32:55;;;;;;;;;;;;;;;;;;4201691;28;20016;-44
2023/02/23 09:34:56;;;;;;;;;;;;;;;;;;4200762;28;20530;-38
2023/02/23 09:36:58;;;;;;;;;;;;;;;;;;4201238;28;19923;-38
2023/02/23 09:39:00;;;;;;;;;;;;;;;;;;4203408;28;19930;-40
2023/02/23 09:41:01;;;;;;;;;;;;;;;;;;4201185;28;19946;-37
2023/02/23 09:43:02;;;;;;;;;;;;;;;;;;4203249;28;20011;-43
2023/02/23 09:45:03;;;;;;;;;;;;;;;;;;4203367;28;19930;-39
2023/02/23 09:47:04;;;;;;;;;;;;;;;;;;4195311;28;19981;-39
2023/02/23 09:49:06;;;;;;;;;;;;;;;;;;4199866;28;19927;-40
2023/02/23 09:51:07;;;;;;;;;;;;;;;;;;4201249;28;19924;-38
2023/02/23 09:53:08;;;;;;;;;;;;;;;;;;4206012;28;19931;-42
2023/02/23 09:55:09;;;;;;;;;;;;;;;;;;4207504;28;19977;-37
2023/02/23 09:57:10;;;;;;;;;;;;;;;;;;4203297;28;20334;-37
2023/02/23 09:59:12;;;;;;;;;;;;;;;;;;4198532;28;20004;-41
2023/02/23 10:01:13;;;;;;;;;;;;;;;;;;4208791;28;19919;-38
2023/02/23 10:03:14;;;;;;;;;;;;;;;;;;4203517;28;19947;-40
2023/02/23 10:05:15;;;;;;;;;;;;;;;;;;4201982;28;20247;-39
2023/02/23 10:07:16;;;;;;;;;;;;;;;;;;4201025;28;19927;-39
2023/02/23 10:09:18;;;;;;;;;;;;;;;;;;4203896;28;20412;-40
2023/02/23 10:11:19;;;;;;;;;;;;;;;;;;4201938;28;20340;-43
2023/02/23 10:13:20;;;;;;;;;;;;;;;;;;4196835;28;19923;-38
2023/02/23 10:15:21;;;;;;;;;;;;;;;;;;4200378;28;19924;-37
2023/02/23 10:17:22;;;;;;;;;;;;;;;;;;4206686;28;19928;-39
2023/02/23 10:19:24;;;;;;;;;;;;;;;;;;4201624;28;19924;-38
2023/02/23 10:21:29;;;;;;;;;;;;;;;;;;4204091;28;19924;-37
2023/02/23 10:23:30;;;;;;;;;;;;;;;;;;4207375;27;19924;-37
2023/02/23 10:25:31;;;;;;;;;;;;;;;;;;4213124;28;19928;-38
2023/02/23 10:27:32;;;;;;;;;;;;;;;;;;4229464;27;21307;-38
2023/02/23 10:29:32;;;;;;;;;;;;;;;;;;4226100;27;20014;-37
2023/02/23 10:31:34;;;;;;;;;;;;;;;;;;4220369;28;20297;-39
2023/02/23 10:33:35;;;;;;;;;;;;;;;;;;4239644;27;20386;-42
2023/02/23 10:35:36;;;;;;;;;;;;;;;;;;4234614;27;20378;-39
2023/02/23 10:37:37;;;;;;;;;;;;;;;;;;4235376;27;20519;-40
2023/02/23 10:39:38;;;;;;;;;;;;;;;;;;4231980;27;19954;-41
2023/02/23 10:41:40;;;;;;;;;;;;;;;;;;4228793;27;19999;-40
2023/02/23 10:43:41;;;;;;;;;;;;;;;;;;4239557;27;21669;-43
2023/02/23 10:45:42;;;;;;;;;;;;;;;;;;4242230;27;19972;-38
2023/02/23 10:47:43;;;;;;;;;;;;;;;;;;4243445;27;19923;-38
2023/02/23 10:49:45;;;;;;;;;;;;;;;;;;4239264;27;19927;-37
2023/02/23 10:51:46;;;;;;;;;;;;;;;;;;4243948;27;19923;-41
2023/02/23 10:53:47;;;;;;;;;;;;;;;;;;4248336;27;19987;-39
2023/02/23 10:55:48;;;;;;;;;;;;;;;;;;4238568;27;19930;-43
2023/02/23 10:57:51;;;;;;;;;;;;;;;;;;4235179;27;19923;-41
2023/02/23 10:59:53;;;;;;;;;;;;;;;;;;4240610;27;20348;-42
2023/02/23 11:01:54;;;;;;;;;;;;;;;;;;4243423;27;19964;-43
2023/02/23 11:03:55;;;;;;;;;;;;;;;;;;4249550;27;19970;-38
2023/02/23 11:05:56;;;;;;;;;;;;;;;;;;4249142;27;19924;-39
2023/02/23 11:07:57;;;;;;;;;;;;;;;;;;4242860;27;20085;-38
2023/02/23 11:09:58;;;;;;;;;;;;;;;;;;4234471;27;20400;-36
2023/02/23 11:11:59;;;;;;;;;;;;;;;;;;4251738;27;19946;-38
2023/02/23 11:14:00;;;;;;;;;;;;;;;;;;4246801;27;19915;-36
2023/02/23 11:16:01;;;;;;;;;;;;;;;;;;4250404;27;20448;-37
2023/02/23 11:18:02;;;;;;;;;;;;;;;;;;4242566;27;19920;-36
2023/02/23 11:20:03;;;;;;;;;;;;;;;;;;4244069;27;19964;-37
2023/02/23 11:22:04;;;;;;;;;;;;;;;;;;4231174;27;19972;-36
2023/02/23 11:24:05;;;;;;;;;;;;;;;;;;4246792;27;20326;-36
2023/02/23 11:26:06;;;;;;;;;;;;;;;;;;4244928;27;19919;-36
2023/02/23 11:28:08;;;;;;;;;;;;;;;;;;4244956;27;20344;-37
2023/02/23 11:30:09;;;;;;;;;;;;;;;;;;4242886;27;19923;-36
2023/02/23 11:32:12;;;;;;;;;;;;;;;;;;4245137;27;20422;-37
2023/02/23 11:34:13;;;;;;;;;;;;;;;;;;4246147;27;20445;-36
2023/02/23 11:36:15;;;;;;;;;;;;;;;;;;4242120;27;19919;-39
2023/02/23 11:38:16;;;;;;;;;;;;;;;;;;4223517;27;19927;-39
2023/02/23 11:40:17;;;;;;;;;;;;;;;;;;4239486;27;20197;-36
2023/02/23 11:42:18;;;;;;;;;;;;;;;;;;4242401;27;19968;-41
2023/02/23 11:44:20;;;;;;;;;;;;;;;;;;4242213;27;20305;-35
2023/02/23 11:46:21;;;;;;;;;;;;;;;;;;4243368;27;19919;-36
2023/02/23 11:48:22;;;;;;;;;;;;;;;;;;4244299;27;19930;-40
2023/02/23 11:50:24;;;;;;;;;;;;;;;;;;4244871;27;19923;-39
2023/02/23 11:52:26;;;;;;;;;;;;;;;;;;4241117;27;19923;-37
2023/02/23 11:54:28;;;;;;;;;;;;;;;;;;4242670;27;19923;-36
2023/02/23 11:56:29;;;;;;;;;;;;;;;;;;4247423;27;19945;-39
2023/02/23 11:58:30;;;;;;;;;;;;;;;;;;4240192;27;20180;-38
2023/02/23 12:00:32;;;;;;;;;;;;;;;;;;4239219;27;19915;-39
2023/02/23 12:02:34;;;;;;;;;;;;;;;;;;4238704;27;19919;-38
2023/02/23 12:04:36;;;;;;;;;;;;;;;;;;4239668;27;19930;-37
2023/02/23 12:06:37;;;;;;;;;;;;;;;;;;4237049;27;19926;-36
2023/02/23 12:08:38;;;;;;;;;;;;;;;;;;4229064;27;20345;-37
2023/02/23 12:10:39;;;;;;;;;;;;;;;;;;4246134;27;19923;-37
2023/02/23 12:12:40;;;;;;;;;;;;;;;;;;4242648;27;19942;-41
2023/02/23 12:14:41;;;;;;;;;;;;;;;;;;4242611;27;19915;-37
2023/02/23 12:16:43;;;;;;;;;;;;;;;;;;4225223;27;20366;-42
2023/02/23 12:18:44;;;;;;;;;;;;;;;;;;4242077;27;19919;-40
2023/02/23 12:20:47;;;;;;;;;;;;;;;;;;4232198;27;19923;-40
2023/02/23 12:22:48;;;;;;;;;;;;;;;;;;4231999;27;19919;-38
2023/02/23 12:24:49;;;;;;;;;;;;;;;;;;4240107;27;19923;-39
2023/02/23 12:26:51;;;;;;;;;;;;;;;;;;4248019;27;19919;-37
2023/02/23 12:28:52;;;;;;;;;;;;;;;;;;4239841;27;20565;-41
2023/02/23 12:30:53;;;;;;;;;;;;;;;;;;4238624;27;19975;-37
2023/02/23 12:32:55;;;;;;;;;;;;;;;;;;4230112;27;20408;-38
2023/02/23 12:34:56;;;;;;;;;;;;;;;;;;4241458;27;19927;-36
2023/02/23 12:36:57;;;;;;;;;;;;;;;;;;4214692;27;20703;-39
2023/02/23 12:38:59;;;;;;;;;;;;;;;;;;4239508;27;20433;-36
2023/02/23 12:40:59;;;;;;;;;;;;;;;;;;4240780;27;19923;-38
2023/02/23 12:43:01;;;;;;;;;;;;;;;;;;4238870;27;19946;-38
2023/02/23 12:45:02;;;;;;;;;;;;;;;;;;4237249;27;20404;-40
2023/02/23 12:47:02;;;;;;;;;;;;;;;;;;4238200;27;19919;-37
2023/02/23 12:49:04;;;;;;;;;;;;;;;;;;4238559;27;19975;-37
2023/02/23 12:51:05;;;;;;;;;;;;;;;;;;4240790;27;19923;-37
2023/02/23 12:53:07;;;;;;;;;;;;;;;;;;4238380;27;19964;-38
2023/02/23 12:55:08;;;;;;;;;;;;;;;;;;4241191;27;19922;-40
2023/02/23 12:57:09;;;;;;;;;;;;;;;;;;4235252;27;19919;-38
2023/02/23 12:59:13;;;;;;;;;;;;;;;;;;4242467;27;19979;-39
2023/02/23 13:01:15;;;;;;;;;;;;;;;;;;4228712;27;19946;-39
2023/02/23 13:03:15;;;;;;;;;;;;;;;;;;4236440;27;19927;-37
2023/02/23 13:05:16;;;;;;;;;;;;;;;;;;4240521;27;19946;-40
2023/02/23 13:07:18;;;;;;;;;;;;;;;;;;4239689;27;19927;-38
2023/02/23 13:09:19;;;;;;;;;;;;;;;;;;4241334;27;19923;-39
2023/02/23 13:11:23;;;;;;;;;;;;;;;;;;4240738;27;20278;-38
2023/02/23 13:13:24;;;;;;;;;;;;;;;;;;4243937;27;20471;-37
2023/02/23 13:15:25;;;;;;;;;;;;;;;;;;4242362;27;20283;-39
2023/02/23 13:17:26;;;;;;;;;;;;;;;;;;4243014;27;19923;-39
2023/02/23 13:19:28;;;;;;;;;;;;;;;;;;4237322;27;19923;-37
2023/02/23 13:21:29;;;;;;;;;;;;;;;;;;4242561;27;19934;-37
2023/02/23 13:23:31;;;;;;;;;;;;;;;;;;4243259;27;19948;-39
2023/02/23 13:25:32;;;;;;;;;;;;;;;;;;4246654;27;19923;-40
2023/02/23 13:27:35;;;;;;;;;;;;;;;;;;4242754;27;19927;-37
2023/02/23 13:29:37;;;;;;;;;;;;;;;;;;4239290;27;21576;-40
2023/02/23 13:31:39;;;;;;;;;;;;;;;;;;4243921;27;19919;-37
2023/02/23 13:33:40;;;;;;;;;;;;;;;;;;4240919;27;19976;-40
2023/02/23 13:35:41;;;;;;;;;;;;;;;;;;4239332;27;19919;-39
2023/02/23 13:37:44;;;;;;;;;;;;;;;;;;4243084;27;19923;-36
2023/02/23 13:39:46;;;;;;;;;;;;;;;;;;4238502;27;19927;-41
2023/02/23 13:41:47;;;;;;;;;;;;;;;;;;4240818;27;19971;-38
2023/02/23 13:43:48;;;;;;;;;;;;;;;;;;4242195;27;20364;-37
2023/02/23 13:45:49;;;;;;;;;;;;;;;;;;4243117;27;19944;-37
2023/02/23 13:47:50;;;;;;;;;;;;;;;;;;4217578;28;19973;-38
2023/02/23 13:49:52;;;;;;;;;;;;;;;;;;4243831;27;19930;-38
2023/02/23 13:51:53;;;;;;;;;;;;;;;;;;4223194;28;19915;-38
2023/02/23 13:53:55;;;;;;;;;;;;;;;;;;4244480;27;19915;-37
2023/02/23 13:55:56;;;;;;;;;;;;;;;;;;4244206;27;19949;-39
2023/02/23 13:57:57;;;;;;;;;;;;;;;;;;4228426;28;19968;-38
2023/02/23 13:59:58;;;;;;;;;;;;;;;;;;4242934;27;20429;-37
2023/02/23 14:01:59;;;;;;;;;;;;;;;;;;4224248;27;19920;-37
2023/02/23 14:04:00;;;;;;;;;;;;;;;;;;4240347;27;19920;-40
2023/02/23 14:06:01;;;;;;;;;;;;;;;;;;4238366;27;19931;-37
2023/02/23 14:08:03;;;;;;;;;;;;;;;;;;4241569;27;20662;-37
2023/02/23 14:10:05;;;;;;;;;;;;;;;;;;4226835;28;19920;-40
2023/02/23 14:12:06;;;;;;;;;;;;;;;;;;4242202;27;19954;-37
2023/02/23 14:14:07;;;;;;;;;;;;;;;;;;4236192;27;19923;-39
2023/02/23 14:16:09;;;;;;;;;;;;;;;;;;4240072;27;19922;-41
2023/02/23 14:18:10;;;;;;;;;;;;;;;;;;4241493;27;20331;-40
2023/02/23 14:20:12;;;;;;;;;;;;;;;;;;4238038;27;21174;-43
2023/02/23 14:22:14;;;;;;;;;;;;;;;;;;4228428;27;19980;-40
2023/02/23 14:24:16;;;;;;;;;;;;;;;;;;4243889;27;19976;-37
2023/02/23 14:26:17;;;;;;;;;;;;;;;;;;4223590;27;21171;-38
2023/02/23 14:28:18;;;;;;;;;;;;;;;;;;4235891;27;19923;-42
2023/02/23 14:30:19;;;;;;;;;;;;;;;;;;4236210;27;20081;-38
2023/02/23 14:32:21;;;;;;;;;;;;;;;;;;4244675;27;20422;-38
2023/02/23 14:34:22;;;;;;;;;;;;;;;;;;4241550;27;19923;-40
2023/02/23 14:36:24;;;;;;;;;;;;;;;;;;4240811;27;19934;-38
2023/02/23 14:38:25;;;;;;;;;;;;;;;;;;4240157;27;19919;-39
2023/02/23 14:40:27;;;;;;;;;;;;;;;;;;4247568;27;19956;-37
2023/02/23 14:42:31;;;;;;;;;;;;;;;;;;4241226;27;19919;-40
2023/02/23 14:44:33;;;;;;;;;;;;;;;;;;4245940;27;20302;-40
2023/02/23 14:46:34;;;;;;;;;;;;;;;;;;4242689;27;19934;-38
2023/02/23 14:48:35;;;;;;;;;;;;;;;;;;4236144;27;20382;-37
2023/02/23 14:50:38;;;;;;;;;;;;;;;;;;4233575;27;19971;-39
2023/02/23 14:52:39;;;;;;;;;;;;;;;;;;4228185;27;20268;-38
2023/02/23 14:54:40;;;;;;;;;;;;;;;;;;4236249;27;20983;-38
2023/02/23 14:56:45;;;;;;;;;;;;;;;;;;4243322;27;19923;-38
2023/02/23 14:58:46;;;;;;;;;;;;;;;;;;4248377;27;19923;-37
2023/02/23 15:00:50;;;;;;;;;;;;;;;;;;4240368;27;21519;-37
2023/02/23 15:02:52;;;;;;;;;;;;;;;;;;4244945;27;19972;-41
2023/02/23 15:04:53;;;;;;;;;;;;;;;;;;4244473;27;19922;-38
2023/02/23 15:06:55;;;;;;;;;;;;;;;;;;4243925;27;19968;-37
2023/02/23 15:08:56;;;;;;;;;;;;;;;;;;4239070;27;20362;-38